Time;durP1;ratioP1;P1;durP2;ratioP2;P2;SDS_P1;SDS_P2;PMS_P1;PMS_P2;Temp;Humidity;BMP_temperature;BMP_pressure;BME280_temperature;BME280_humidity;BME280_pressure;Samples;Min_cycle;Max_cycle;Signal;HPM_P1;HPM_P2
2022/12/10 00:01:19;;;;;;;37.75;16.90;;;-1.70;99.90;;;;;;5096247;28;20035;-69
2022/12/10 00:03:47;;;;;;;32.95;16.75;;;-1.60;99.90;;;;;;5096979;28;20024;-69
2022/12/10 00:06:21;;;;;;;32.33;15.32;;;-1.60;99.90;;;;;;5074631;28;20118;-69
2022/12/10 00:08:49;;;;;;;33.15;17.35;;;-1.60;99.90;;;;;;5075673;28;20313;-69
2022/12/10 00:11:18;;;;;;;33.10;15.73;;;-1.60;99.90;;;;;;5074933;28;20029;-69
2022/12/10 00:13:46;;;;;;;33.88;15.65;;;-1.50;99.90;;;;;;5076153;28;20021;-69
2022/12/10 00:16:16;;;;;;;30.75;15.68;;;-1.50;99.90;;;;;;5076522;28;20111;-69
2022/12/10 00:18:43;;;;;;;29.10;13.80;;;-1.50;99.90;;;;;;5076509;28;20036;-69
2022/12/10 00:21:14;;;;;;;31.92;15.45;;;-1.50;99.90;;;;;;5076384;28;20044;-69
2022/12/10 00:23:42;;;;;;;29.77;14.15;;;-1.50;99.90;;;;;;5076360;28;20027;-68
2022/12/10 00:26:15;;;;;;;34.97;16.05;;;-1.50;99.90;;;;;;5075760;28;20024;-69
2022/12/10 00:28:44;;;;;;;33.90;15.63;;;-1.40;99.90;;;;;;5075842;28;20035;-69
2022/12/10 00:31:14;;;;;;;35.75;17.25;;;-1.40;99.90;;;;;;5077789;28;20013;-69
2022/12/10 00:33:43;;;;;;;36.80;17.85;;;-1.40;99.90;;;;;;5078747;28;20036;-68
2022/12/10 00:36:17;;;;;;;33.08;16.52;;;-1.40;99.90;;;;;;5079284;28;20021;-69
2022/12/10 00:38:45;;;;;;;31.70;16.38;;;-1.40;99.90;;;;;;5079898;28;20391;-69
2022/12/10 00:41:13;;;;;;;29.55;14.65;;;-1.40;99.90;;;;;;5079260;28;20048;-68
2022/12/10 00:43:40;;;;;;;33.22;16.58;;;-1.40;99.90;;;;;;5079415;28;20083;-69
2022/12/10 00:46:08;;;;;;;32.42;15.38;;;-1.30;99.90;;;;;;5079115;28;20032;-69
2022/12/10 00:48:35;;;;;;;29.13;16.75;;;-1.30;99.90;;;;;;5079216;28;20021;-69
2022/12/10 00:51:09;;;;;;;40.30;18.25;;;-1.30;99.90;;;;;;5078609;28;20025;-69
2022/12/10 00:53:38;;;;;;;48.78;19.27;;;-1.40;99.90;;;;;;5079037;28;20024;-69
2022/12/10 00:56:07;;;;;;;37.70;17.83;;;-1.30;99.90;;;;;;5078983;28;20324;-69
2022/12/10 00:58:35;;;;;;;39.65;18.73;;;-1.30;99.90;;;;;;5079484;28;20436;-69
2022/12/10 01:01:21;;;;;;;31.50;15.80;;;-1.30;99.90;;;;;;5078914;28;20021;-69
2022/12/10 01:03:50;;;;;;;39.80;18.65;;;-1.30;99.90;;;;;;5077783;28;20060;-69
2022/12/10 01:06:25;;;;;;;39.28;18.40;;;-1.30;99.90;;;;;;5098078;28;20040;-69
2022/12/10 01:08:55;;;;;;;37.43;18.00;;;-1.20;99.90;;;;;;5099776;28;20078;-69
2022/12/10 01:11:28;;;;;;;44.13;19.55;;;-1.20;99.90;;;;;;5099556;28;20032;-69
2022/12/10 01:13:56;;;;;;;47.95;19.65;;;-1.20;99.90;;;;;;5099153;28;20099;-69
2022/12/10 01:16:25;;;;;;;40.08;17.48;;;-1.20;99.90;;;;;;5098895;28;20020;-69
2022/12/10 01:18:57;;;;;;;35.97;16.30;;;-1.20;99.90;;;;;;5099447;28;20311;-69
2022/12/10 01:21:26;;;;;;;33.63;15.65;;;-1.20;99.90;;;;;;5080739;28;20024;-69
2022/12/10 01:23:55;;;;;;;28.35;14.75;;;-1.20;99.90;;;;;;5098918;28;20024;-69
2022/12/10 01:26:30;;;;;;;31.65;15.70;;;-1.20;99.90;;;;;;5098545;28;20024;-69
2022/12/10 01:28:58;;;;;;;28.65;14.68;;;-1.20;99.90;;;;;;5080752;28;20046;-69
2022/12/10 01:31:29;;;;;;;30.98;14.30;;;-1.20;99.90;;;;;;5099115;28;20024;-69
2022/12/10 01:33:57;;;;;;;36.58;15.52;;;-1.20;99.90;;;;;;5099221;28;20016;-68
2022/12/10 01:36:28;;;;;;;32.80;14.82;;;-1.20;99.90;;;;;;5098442;28;20496;-69
2022/12/10 01:38:56;;;;;;;33.05;15.30;;;-1.30;99.90;;;;;;5099231;28;20024;-69
2022/12/10 01:41:27;;;;;;;28.80;14.65;;;-1.30;99.90;;;;;;5098307;28;20027;-69
2022/12/10 01:44:23;;;;;;;27.05;14.70;;;-1.40;99.90;;;;;;5098575;28;20020;-69
2022/12/10 01:46:54;;;;;;;30.00;14.63;;;-1.50;99.90;;;;;;5080201;28;20031;-69
2022/12/10 01:49:32;;;;;;;34.08;15.48;;;-1.60;99.90;;;;;;5098824;28;20092;-69
2022/12/10 01:52:00;;;;;;;33.50;16.15;;;-1.60;99.90;;;;;;5098125;28;20038;-68
2022/12/10 01:54:35;;;;;;;34.00;16.15;;;-1.70;99.90;;;;;;5080572;28;20374;-69
2022/12/10 01:57:04;;;;;;;36.03;16.45;;;-1.80;99.90;;;;;;5098091;28;20104;-68
2022/12/10 01:59:32;;;;;;;39.70;17.25;;;-1.90;99.90;;;;;;5080046;28;20016;-68
2022/12/10 02:02:40;;;;;;;36.67;17.17;;;-2.00;99.90;;;;;;5098005;28;20029;-69
2022/12/10 02:05:51;;;;;;;37.88;17.05;;;-2.10;99.90;;;;;;5084619;28;20374;-69
2022/12/10 02:08:57;;;;;;;39.72;16.73;;;-2.20;99.90;;;;;;5036661;28;20049;-68
2022/12/10 02:11:34;;;;;;;36.13;15.63;;;-2.30;99.90;;;;;;5086709;28;20036;-69
2022/12/10 02:14:31;;;;;;;36.95;16.17;;;-2.40;99.90;;;;;;5098302;28;20012;-69
2022/12/10 02:17:05;;;;;;;42.47;16.17;;;-2.40;99.90;;;;;;5098090;28;20094;-69
2022/12/10 02:20:03;;;;;;;39.70;16.45;;;-2.50;99.90;;;;;;5098479;28;20301;-69
2022/12/10 02:22:38;;;;;;;41.95;17.70;;;-2.50;99.90;;;;;;5082948;28;20036;-69
2022/12/10 02:25:10;;;;;;;42.37;17.73;;;-2.60;99.90;;;;;;5097530;28;20027;-69
2022/12/10 02:28:13;;;;;;;46.10;20.45;;;-2.60;99.90;;;;;;5098043;28;20254;-69
2022/12/10 02:30:42;;;;;;;42.00;17.63;;;-2.60;99.90;;;;;;5097861;28;20024;-69
2022/12/10 02:33:12;;;;;;;37.22;16.25;;;-2.70;99.90;;;;;;5098041;28;20017;-69
2022/12/10 02:35:41;;;;;;;41.28;18.13;;;-2.80;99.90;;;;;;5097304;28;20066;-69
2022/12/10 02:38:22;;;;;;;43.17;17.02;;;-2.80;99.90;;;;;;5097983;28;20024;-69
2022/12/10 02:40:55;;;;;;;38.30;15.85;;;-2.90;99.90;;;;;;5097271;28;20020;-69
2022/12/10 02:43:25;;;;;;;37.85;15.43;;;-3.00;99.90;;;;;;5097817;28;20453;-69
2022/12/10 02:45:52;;;;;;;40.97;17.67;;;-3.00;99.90;;;;;;5079173;28;20036;-68
2022/12/10 02:48:20;;;;;;;38.72;16.33;;;-3.10;99.90;;;;;;5079534;28;20443;-68
2022/12/10 02:50:47;;;;;;;38.45;15.88;;;-3.10;99.90;;;;;;5097041;28;20431;-68
2022/12/10 02:53:15;;;;;;;37.30;15.93;;;-3.10;99.90;;;;;;5097350;28;20030;-69
2022/12/10 02:55:51;;;;;;;38.03;16.35;;;-3.10;99.90;;;;;;5097087;28;20428;-69
2022/12/10 02:58:37;;;;;;;41.25;16.17;;;-3.10;99.90;;;;;;5097093;28;20030;-69
2022/12/10 03:01:23;;;;;;;38.67;16.87;;;-3.10;99.90;;;;;;5097553;28;20108;-69
2022/12/10 03:04:01;;;;;;;31.77;14.73;;;-3.00;99.90;;;;;;5096979;28;20028;-68
2022/12/10 03:06:43;;;;;;;38.83;15.85;;;-3.00;99.90;;;;;;5096768;28;20435;-68
2022/12/10 03:09:15;;;;;;;40.10;16.65;;;-2.90;99.90;;;;;;5096995;28;20107;-68
2022/12/10 03:11:46;;;;;;;46.78;19.25;;;-2.80;99.90;;;;;;5097388;28;20082;-69
2022/12/10 03:14:31;;;;;;;39.85;15.85;;;-2.80;99.90;;;;;;5078814;28;20024;-69
2022/12/10 03:17:03;;;;;;;39.50;16.52;;;-2.70;99.90;;;;;;5096684;28;20031;-68
2022/12/10 03:19:49;;;;;;;44.22;18.48;;;-2.60;99.90;;;;;;5097411;28;20312;-69
2022/12/10 03:22:20;;;;;;;44.40;16.15;;;-2.60;99.90;;;;;;5096667;28;20024;-69
2022/12/10 03:24:48;;;;;;;50.08;18.23;;;-2.50;99.90;;;;;;5096619;28;20023;-69
2022/12/10 03:27:17;;;;;;;41.03;17.33;;;-2.40;99.90;;;;;;5097175;28;20020;-68
2022/12/10 03:29:51;;;;;;;41.50;18.13;;;-2.40;99.90;;;;;;5096589;28;20044;-69
2022/12/10 03:32:22;;;;;;;39.47;16.00;;;-2.30;99.90;;;;;;5096556;28;20420;-69
2022/12/10 03:34:54;;;;;;;33.78;15.50;;;-2.30;99.90;;;;;;5096818;28;20332;-69
2022/12/10 03:37:22;;;;;;;45.55;17.75;;;-2.20;99.90;;;;;;5096361;28;20384;-69
2022/12/10 03:39:50;;;;;;;37.83;17.20;;;-2.20;99.90;;;;;;5078809;28;20020;-69
2022/12/10 03:42:17;;;;;;;35.67;16.95;;;-2.10;99.90;;;;;;5096986;28;20107;-69
2022/12/10 03:44:44;;;;;;;42.08;17.35;;;-2.00;99.90;;;;;;5096590;28;20024;-69
2022/12/10 03:47:15;;;;;;;42.08;17.33;;;-2.00;99.90;;;;;;5096358;28;20020;-69
2022/12/10 03:49:43;;;;;;;38.33;16.08;;;-1.90;99.90;;;;;;5096385;28;20018;-69
2022/12/10 03:52:10;;;;;;;40.17;17.48;;;-1.90;99.90;;;;;;5096342;28;20039;-69
2022/12/10 03:54:38;;;;;;;46.50;17.33;;;-1.90;99.90;;;;;;5096812;28;20016;-69
2022/12/10 03:57:05;;;;;;;42.67;16.25;;;-1.80;99.90;;;;;;5096318;28;20021;-69
2022/12/10 03:59:33;;;;;;;47.35;17.70;;;-1.80;99.90;;;;;;5078455;28;20024;-69
2022/12/10 04:02:01;;;;;;;41.72;15.73;;;-1.80;99.90;;;;;;5096311;28;20031;-69
2022/12/10 04:04:28;;;;;;;48.85;18.10;;;-1.70;99.90;;;;;;5096475;28;20068;-69
2022/12/10 04:06:55;;;;;;;46.53;16.80;;;-1.70;99.90;;;;;;5081455;28;20028;-69
2022/12/10 04:09:23;;;;;;;42.45;15.15;;;-1.70;99.90;;;;;;5100766;28;20023;-69
2022/12/10 04:11:55;;;;;;;54.88;16.90;;;-1.70;99.90;;;;;;5100397;28;20028;-69
2022/12/10 04:17:08;;;;;;;39.20;15.25;;;-1.70;99.90;;;;;;5100079;28;20031;-69
2022/12/10 04:19:37;;;;;;;46.90;15.75;;;-1.70;99.90;;;;;;5099983;28;20462;-69
2022/12/10 04:27:40;;;;;;;37.15;13.88;;;-1.70;99.90;;;;;;5100139;28;20328;-69
2022/12/10 04:30:11;;;;;;;33.40;13.60;;;-1.60;99.90;;;;;;5099849;28;20073;-69
2022/12/10 04:32:38;;;;;;;33.63;13.13;;;-1.60;99.90;;;;;;5099734;28;20015;-69
2022/12/10 04:35:06;;;;;;;37.00;13.65;;;-1.60;99.90;;;;;;5100421;28;20016;-69
2022/12/10 04:37:35;;;;;;;30.77;12.05;;;-1.60;99.90;;;;;;5099613;28;20016;-69
2022/12/10 04:40:02;;;;;;;28.65;11.88;;;-1.60;99.90;;;;;;5099586;28;20031;-69
2022/12/10 04:42:29;;;;;;;31.17;12.27;;;-1.60;99.90;;;;;;5099857;28;20412;-69
2022/12/10 04:44:56;;;;;;;33.40;12.57;;;-1.60;99.90;;;;;;5099673;28;20031;-69
2022/12/10 04:47:23;;;;;;;32.60;11.10;;;-1.60;99.90;;;;;;5099450;28;20020;-69
2022/12/10 04:49:51;;;;;;;34.90;14.23;;;-1.50;99.90;;;;;;5099990;28;20020;-69
2022/12/10 04:52:18;;;;;;;41.45;17.20;;;-1.50;99.90;;;;;;5099376;28;20095;-69
2022/12/10 04:54:46;;;;;;;45.97;19.27;;;-1.50;99.90;;;;;;5099327;28;20131;-69
2022/12/10 04:57:15;;;;;;;38.60;15.48;;;-1.50;99.90;;;;;;5099223;28;20020;-69
2022/12/10 04:59:43;;;;;;;40.88;15.80;;;-1.50;99.90;;;;;;5081294;28;20370;-69
2022/12/10 05:02:11;;;;;;;41.75;15.13;;;-1.50;99.90;;;;;;5099719;28;20345;-69
2022/12/10 05:04:38;;;;;;;34.15;13.27;;;-1.40;99.90;;;;;;5099356;28;20051;-69
2022/12/10 05:07:05;;;;;;;31.30;13.48;;;-1.40;99.90;;;;;;5099476;28;20077;-69
2022/12/10 05:09:33;;;;;;;31.13;12.07;;;-1.40;99.90;;;;;;5099675;28;20016;-69
2022/12/10 05:12:00;;;;;;;36.05;13.18;;;-1.40;99.90;;;;;;5081045;28;20024;-69
2022/12/10 05:14:28;;;;;;;36.45;13.88;;;-1.40;99.90;;;;;;5081192;28;20027;-69
2022/12/10 05:16:55;;;;;;;37.80;14.18;;;-1.40;99.90;;;;;;5098267;28;20115;-69
2022/12/10 05:19:25;;;;;;;34.70;14.23;;;-1.50;99.90;;;;;;5098954;28;20028;-69
2022/12/10 05:24:39;;;;;;;33.07;12.47;;;-1.50;99.90;;;;;;5099290;28;20067;-69
2022/12/10 05:27:06;;;;;;;41.58;13.05;;;-1.50;99.90;;;;;;5098637;28;20020;-69
2022/12/10 05:29:34;;;;;;;38.17;13.82;;;-1.50;99.90;;;;;;5098982;28;20073;-69
2022/12/10 05:32:02;;;;;;;32.47;12.23;;;-1.50;99.90;;;;;;5099142;28;20368;-69
2022/12/10 05:34:29;;;;;;;38.17;12.18;;;-1.50;99.90;;;;;;5099297;28;20051;-69
2022/12/10 05:36:57;;;;;;;33.58;12.70;;;-1.50;99.90;;;;;;5098968;28;20028;-69
2022/12/10 05:39:24;;;;;;;38.50;13.38;;;-1.40;99.90;;;;;;5099055;28;20035;-69
2022/12/10 05:41:52;;;;;;;41.90;14.50;;;-1.40;99.90;;;;;;5098438;28;20055;-69
2022/12/10 05:44:19;;;;;;;37.13;15.05;;;-1.40;99.90;;;;;;5098532;28;20024;-69
2022/12/10 05:46:47;;;;;;;40.38;14.70;;;-1.40;99.90;;;;;;5098831;28;20031;-69
2022/12/10 05:49:14;;;;;;;44.92;15.38;;;-1.40;99.90;;;;;;5098392;28;20016;-69
2022/12/10 05:51:42;;;;;;;37.40;13.15;;;-1.40;99.90;;;;;;5080249;28;20020;-69
2022/12/10 05:54:10;;;;;;;42.22;16.13;;;-1.40;99.90;;;;;;5080452;28;20023;-69
2022/12/10 05:56:38;;;;;;;45.60;14.70;;;-1.30;99.90;;;;;;5080129;28;20412;-69
2022/12/10 05:59:05;;;;;;;42.78;14.98;;;-1.30;99.90;;;;;;5080097;28;20172;-69
2022/12/10 06:01:35;;;;;;;40.65;16.42;;;-1.40;99.90;;;;;;5080117;28;20020;-69
2022/12/10 06:04:04;;;;;;;39.78;14.02;;;-1.30;99.90;;;;;;5079855;28;20020;-69
2022/12/10 06:06:35;;;;;;;49.00;15.35;;;-1.30;99.90;;;;;;5097784;28;20113;-69
2022/12/10 06:09:02;;;;;;;49.30;15.23;;;-1.30;99.90;;;;;;5097733;28;20028;-69
2022/12/10 06:11:30;;;;;;;41.53;15.90;;;-1.30;99.90;;;;;;5079341;28;20027;-69
2022/12/10 06:13:59;;;;;;;51.45;16.10;;;-1.30;99.90;;;;;;5079804;28;20020;-69
2022/12/10 06:16:27;;;;;;;51.05;16.40;;;-1.30;99.90;;;;;;5097732;28;20059;-69
2022/12/10 06:18:55;;;;;;;40.20;15.52;;;-1.30;99.90;;;;;;5097877;28;20035;-69
2022/12/10 06:21:22;;;;;;;42.70;14.60;;;-1.20;99.90;;;;;;5097562;28;20029;-69
2022/12/10 06:23:51;;;;;;;40.70;13.15;;;-1.20;99.90;;;;;;5079733;28;20028;-69
2022/12/10 06:26:23;;;;;;;43.08;16.08;;;-1.20;99.90;;;;;;5079486;28;20046;-69
2022/12/10 06:28:51;;;;;;;39.22;13.63;;;-1.20;99.90;;;;;;5097987;28;20032;-69
2022/12/10 06:31:18;;;;;;;41.58;14.35;;;-1.20;99.90;;;;;;5079464;28;20016;-69
2022/12/10 06:33:46;;;;;;;45.75;15.27;;;-1.20;99.90;;;;;;5097434;28;20024;-69
2022/12/10 06:36:15;;;;;;;37.28;13.52;;;-1.20;99.90;;;;;;5097290;28;20089;-69
2022/12/10 06:38:43;;;;;;;45.60;16.60;;;-1.20;99.90;;;;;;5079772;28;20024;-69
2022/12/10 06:41:13;;;;;;;41.25;13.93;;;-1.20;99.90;;;;;;5078815;28;20113;-69
2022/12/10 06:43:41;;;;;;;46.78;15.27;;;-1.20;99.90;;;;;;5079296;28;20085;-69
2022/12/10 06:46:15;;;;;;;50.40;15.65;;;-1.20;99.90;;;;;;5097970;28;20024;-69
2022/12/10 06:48:43;;;;;;;52.28;17.58;;;-1.20;99.90;;;;;;5097904;28;20042;-69
2022/12/10 06:51:12;;;;;;;47.67;16.05;;;-1.20;99.90;;;;;;5097568;28;20027;-69
2022/12/10 06:53:40;;;;;;;54.75;19.48;;;-1.20;99.90;;;;;;5079190;28;20333;-69
2022/12/10 06:56:12;;;;;;;52.50;17.67;;;-1.20;99.90;;;;;;5097034;28;20031;-69
2022/12/10 06:58:43;;;;;;;50.28;17.23;;;-1.10;99.90;;;;;;5097243;28;20016;-69
2022/12/10 07:01:14;;;;;;;50.42;17.00;;;-1.10;99.90;;;;;;5097000;28;20025;-69
2022/12/10 07:03:42;;;;;;;52.75;16.33;;;-1.10;99.90;;;;;;5097536;28;20397;-69
2022/12/10 07:06:10;;;;;;;46.05;15.38;;;-1.10;99.90;;;;;;5075268;28;20336;-69
2022/12/10 07:08:38;;;;;;;59.53;18.15;;;-1.10;99.90;;;;;;5076863;28;20016;-69
2022/12/10 07:11:07;;;;;;;50.70;16.48;;;-1.10;99.90;;;;;;5076034;28;20052;-69
2022/12/10 07:13:35;;;;;;;50.63;17.38;;;-1.10;99.90;;;;;;5077186;28;20028;-69
2022/12/10 07:16:12;;;;;;;49.45;15.18;;;-1.10;99.90;;;;;;5075525;28;20029;-69
2022/12/10 07:18:40;;;;;;;41.80;15.45;;;-1.10;99.90;;;;;;5076599;28;20526;-69
2022/12/10 07:21:22;;;;;;;50.97;15.43;;;-1.10;99.90;;;;;;5075320;28;20036;-69
2022/12/10 07:23:51;;;;;;;45.35;15.88;;;-1.10;99.90;;;;;;5075332;28;20024;-68
2022/12/10 07:26:18;;;;;;;49.00;16.55;;;-1.10;99.90;;;;;;5076506;28;20079;-69
2022/12/10 07:28:46;;;;;;;47.03;13.93;;;-1.10;99.90;;;;;;5077002;28;20075;-69
2022/12/10 07:31:13;;;;;;;53.28;17.65;;;-1.10;99.90;;;;;;5075315;28;20115;-69
2022/12/10 07:33:40;;;;;;;53.65;15.82;;;-1.10;99.90;;;;;;5077069;28;20082;-69
2022/12/10 07:36:11;;;;;;;53.03;17.92;;;-1.10;99.90;;;;;;5076669;28;20420;-69
2022/12/10 07:38:39;;;;;;;50.00;16.35;;;-1.10;99.90;;;;;;5076898;28;20051;-69
2022/12/10 07:41:09;;;;;;;47.20;15.15;;;-1.10;99.90;;;;;;5077267;28;20044;-72
2022/12/10 07:43:38;;;;;;;47.30;17.50;;;-1.00;99.90;;;;;;5081379;28;20325;-70
2022/12/10 07:46:07;;;;;;;47.35;16.27;;;-1.00;99.90;;;;;;5080251;28;20024;-70
2022/12/10 07:48:35;;;;;;;46.17;17.02;;;-1.00;99.90;;;;;;5080337;28;20021;-70
2022/12/10 07:51:03;;;;;;;50.55;16.67;;;-1.00;99.90;;;;;;5080211;28;20119;-70
2022/12/10 07:53:31;;;;;;;49.78;17.10;;;-1.00;99.90;;;;;;5079346;28;20432;-70
2022/12/10 07:55:58;;;;;;;45.63;15.40;;;-1.00;99.90;;;;;;5079363;28;20024;-70
2022/12/10 07:58:29;;;;;;;44.90;15.32;;;-0.90;99.90;;;;;;5079355;28;20494;-72
2022/12/10 08:00:56;;;;;;;45.03;14.93;;;-0.90;99.90;;;;;;5079768;28;20032;-72
2022/12/10 08:03:24;;;;;;;46.03;15.10;;;-0.90;99.90;;;;;;5079986;28;20028;-72
2022/12/10 08:06:13;;;;;;;48.38;16.50;;;-0.90;99.90;;;;;;5094888;28;20098;-72
2022/12/10 08:08:41;;;;;;;43.53;15.18;;;-0.80;99.90;;;;;;5100293;28;20016;-73
2022/12/10 08:11:09;;;;;;;48.97;16.38;;;-0.80;99.90;;;;;;5100158;28;20024;-72
2022/12/10 08:13:38;;;;;;;48.75;16.10;;;-0.80;99.90;;;;;;5100310;28;20020;-72
2022/12/10 08:16:13;;;;;;;51.75;16.15;;;-0.80;99.90;;;;;;5100644;28;20032;-72
2022/12/10 08:18:41;;;;;;;48.20;15.80;;;-0.80;99.90;;;;;;5100353;28;20066;-72
2022/12/10 08:21:16;;;;;;;46.90;16.85;;;-0.80;99.90;;;;;;5081850;28;20327;-72
2022/12/10 08:23:43;;;;;;;48.60;14.82;;;-0.70;99.90;;;;;;5082128;28;20081;-71
2022/12/10 08:26:16;;;;;;;45.75;16.27;;;-0.70;99.90;;;;;;5100081;28;20374;-76
2022/12/10 08:28:43;;;;;;;44.28;15.00;;;-0.70;99.90;;;;;;5082047;28;20024;-80
2022/12/10 08:31:12;;;;;;;47.28;16.08;;;-0.70;99.90;;;;;;5100066;28;20013;-77
2022/12/10 08:33:39;;;;;;;43.40;15.05;;;-0.70;99.90;;;;;;5081948;28;20020;-82
2022/12/10 08:36:08;;;;;;;45.33;14.30;;;-0.60;99.90;;;;;;5081718;28;20301;-79
2022/12/10 08:38:36;;;;;;;52.63;15.95;;;-0.60;99.90;;;;;;5099761;28;20028;-78
2022/12/10 08:41:20;;;;;;;41.40;15.43;;;-0.60;99.90;;;;;;5081285;28;20024;-79
2022/12/10 08:43:48;;;;;;;49.63;16.92;;;-0.60;99.90;;;;;;5099613;28;20024;-77
2022/12/10 08:46:15;;;;;;;45.35;15.85;;;-0.50;99.90;;;;;;5099468;28;20035;-78
2022/12/10 08:48:43;;;;;;;52.85;18.38;;;-0.50;99.90;;;;;;5080904;28;20020;-77
2022/12/10 08:51:14;;;;;;;50.50;16.48;;;-0.50;99.90;;;;;;5099263;28;20020;-77
2022/12/10 08:53:42;;;;;;;47.35;16.10;;;-0.50;99.90;;;;;;5099393;28;20020;-79
2022/12/10 08:56:10;;;;;;;41.63;15.30;;;-0.40;99.90;;;;;;5099377;28;20047;-77
2022/12/10 08:58:38;;;;;;;52.80;17.88;;;-0.40;99.90;;;;;;5081487;28;20024;-79
2022/12/10 09:01:13;;;;;;;49.38;18.13;;;-0.40;99.90;;;;;;5099500;28;20024;-74
2022/12/10 09:03:40;;;;;;;40.55;15.98;;;-0.40;99.90;;;;;;5081339;28;20024;-76
2022/12/10 09:06:14;;;;;;;47.50;16.52;;;-0.40;99.90;;;;;;5077489;28;20045;-78
2022/12/10 09:08:42;;;;;;;46.38;16.80;;;-0.30;99.90;;;;;;5078081;28;20051;-72
2022/12/10 09:11:15;;;;;;;56.38;18.92;;;-0.30;99.90;;;;;;5078888;28;20023;-77
2022/12/10 09:13:43;;;;;;;44.78;16.58;;;-0.30;99.90;;;;;;5079072;28;20100;-74
2022/12/10 09:16:11;;;;;;;44.45;16.52;;;-0.30;99.90;;;;;;5077613;28;20028;-74
2022/12/10 09:18:39;;;;;;;45.58;15.98;;;-0.30;99.90;;;;;;5079642;28;20298;-69
2022/12/10 09:21:09;;;;;;;50.83;16.08;;;-0.20;99.90;;;;;;5078545;28;20302;-77
2022/12/10 09:23:37;;;;;;;41.42;15.57;;;-0.20;99.90;;;;;;5078607;28;20039;-77
2022/12/10 09:26:13;;;;;;;50.20;16.33;;;-0.20;99.90;;;;;;5078456;28;20447;-78
2022/12/10 09:28:42;;;;;;;43.97;17.38;;;-0.20;99.90;;;;;;5077590;28;20032;-75
2022/12/10 09:31:10;;;;;;;44.33;16.33;;;-0.20;99.90;;;;;;5078412;28;20024;-72
2022/12/10 09:33:39;;;;;;;44.90;16.00;;;-0.20;99.90;;;;;;5078368;28;20099;-72
2022/12/10 09:36:09;;;;;;;50.03;16.42;;;-0.10;99.90;;;;;;5078225;28;20074;-72
2022/12/10 09:38:38;;;;;;;47.30;16.65;;;-0.10;99.90;;;;;;5078968;28;20032;-72
2022/12/10 09:41:19;;;;;;;50.28;17.38;;;-0.10;99.90;;;;;;5078129;28;20043;-72
2022/12/10 09:44:14;;;;;;;41.40;15.77;;;-0.10;99.90;;;;;;5078707;28;20309;-72
2022/12/10 09:47:00;;;;;;;39.85;14.88;;;0.00;99.90;;;;;;5078101;28;20374;-71
2022/12/10 09:49:42;;;;;;;51.33;16.93;;;0.00;99.90;;;;;;5078509;28;20019;-72
2022/12/10 09:52:17;;;;;;;49.17;16.30;;;0.00;99.90;;;;;;5077898;28;20044;-72
2022/12/10 09:54:49;;;;;;;38.15;14.88;;;0.00;99.90;;;;;;5078004;28;20027;-72
2022/12/10 09:57:34;;;;;;;44.55;14.82;;;0.00;99.90;;;;;;5077850;28;20024;-72
2022/12/10 10:00:17;;;;;;;45.00;16.33;;;0.00;99.90;;;;;;5076724;28;20020;-72
2022/12/10 10:02:46;;;;;;;41.65;15.90;;;0.00;99.90;;;;;;5077381;28;20032;-72
2022/12/10 10:05:37;;;;;;;44.47;17.52;;;0.00;99.90;;;;;;5087053;28;20452;-72
2022/12/10 10:08:19;;;;;;;42.33;15.50;;;0.00;99.90;;;;;;5098139;28;20017;-72
2022/12/10 10:10:47;;;;;;;46.60;15.75;;;0.00;99.90;;;;;;5098142;28;20016;-72
2022/12/10 10:13:20;;;;;;;48.03;17.42;;;0.00;99.90;;;;;;5098135;28;20312;-72
2022/12/10 10:15:47;;;;;;;46.28;17.80;;;0.00;99.90;;;;;;5098369;28;20097;-72
2022/12/10 10:18:42;;;;;;;46.95;16.02;;;0.10;99.90;;;;;;5097937;28;20028;-72
2022/12/10 10:21:22;;;;;;;44.25;15.85;;;0.10;99.90;;;;;;5097891;28;20032;-72
2022/12/10 10:23:51;;;;;;;51.35;16.55;;;0.10;99.90;;;;;;5097656;28;20379;-72
2022/12/10 10:26:18;;;;;;;42.83;16.20;;;0.10;99.90;;;;;;5098043;28;20030;-72
2022/12/10 10:28:45;;;;;;;44.20;16.73;;;0.10;99.90;;;;;;5097919;28;20020;-71
2022/12/10 10:31:25;;;;;;;35.67;14.52;;;0.10;99.90;;;;;;5098087;28;20020;-72
2022/12/10 10:33:59;;;;;;;42.90;16.85;;;0.20;99.90;;;;;;5098085;28;20023;-72
2022/12/10 10:36:33;;;;;;;40.60;17.25;;;0.20;99.90;;;;;;5097329;28;20039;-72
2022/12/10 10:39:28;;;;;;;48.53;17.50;;;0.20;99.90;;;;;;5097352;28;20016;-71
2022/12/10 10:41:58;;;;;;;41.88;16.23;;;0.30;99.90;;;;;;5079469;28;20340;-71
2022/12/10 10:44:37;;;;;;;41.88;16.42;;;0.30;99.90;;;;;;5079690;28;20024;-71
2022/12/10 10:47:25;;;;;;;43.45;16.20;;;0.30;99.90;;;;;;5097127;28;20024;-71
2022/12/10 10:49:53;;;;;;;43.00;15.75;;;0.30;99.90;;;;;;5097389;28;20518;-72
2022/12/10 10:52:21;;;;;;;49.50;17.40;;;0.40;99.90;;;;;;5097306;28;20401;-71
2022/12/10 10:54:49;;;;;;;39.35;15.23;;;0.30;99.90;;;;;;5097078;28;20027;-71
2022/12/10 10:57:49;;;;;;;34.92;13.75;;;0.30;99.90;;;;;;5097016;28;20032;-72
2022/12/10 11:00:24;;;;;;;37.85;14.10;;;0.30;99.90;;;;;;5063729;28;20039;-72
2022/12/10 11:02:52;;;;;;;24.95;10.18;;;0.30;99.90;;;;;;5079012;28;20031;-75
2022/12/10 11:05:30;;;;;;;11.63;5.53;;;0.30;99.90;;;;;;5096658;28;20379;-74
2022/12/10 11:08:15;;;;;;;18.20;7.68;;;0.30;99.90;;;;;;5097183;28;20408;-74
2022/12/10 11:11:04;;;;;;;18.17;7.00;;;0.30;99.90;;;;;;5097183;28;20035;-74
2022/12/10 11:13:35;;;;;;;23.55;10.32;;;0.40;99.90;;;;;;5097577;28;20110;-74
2022/12/10 11:16:13;;;;;;;32.45;15.18;;;0.40;99.90;;;;;;5077946;28;20324;-73
2022/12/10 11:18:53;;;;;;;25.77;10.85;;;0.30;99.90;;;;;;5097193;28;20020;-74
2022/12/10 11:21:22;;;;;;;33.78;13.30;;;0.30;99.90;;;;;;5078698;28;20031;-73
2022/12/10 11:23:56;;;;;;;35.63;13.52;;;0.40;99.90;;;;;;5078785;28;20078;-74
2022/12/10 11:26:45;;;;;;;31.65;12.48;;;0.40;99.90;;;;;;5096849;28;20028;-72
2022/12/10 11:29:34;;;;;;;29.38;11.13;;;0.40;99.90;;;;;;5097369;28;20031;-73
2022/12/10 11:32:40;;;;;;;29.70;11.57;;;0.40;99.90;;;;;;5078703;28;20039;-73
2022/12/10 11:35:40;;;;;;;35.22;15.50;;;0.40;99.90;;;;;;5096529;28;20421;-73
2022/12/10 11:38:22;;;;;;;36.55;13.25;;;0.40;99.90;;;;;;5096664;28;20024;-72
2022/12/10 11:41:32;;;;;;;31.55;10.98;;;0.40;99.90;;;;;;5078616;28;20025;-71
2022/12/10 11:44:30;;;;;;;18.27;8.05;;;0.40;99.90;;;;;;5096539;28;20362;-73
2022/12/10 11:47:15;;;;;;;18.05;7.35;;;0.40;99.90;;;;;;5096835;28;20414;-72
2022/12/10 11:50:11;;;;;;;18.97;9.03;;;0.40;99.90;;;;;;5096489;28;20046;-70
2022/12/10 11:53:05;;;;;;;15.63;6.55;;;0.40;99.90;;;;;;5078469;28;20027;-73
2022/12/10 11:56:01;;;;;;;21.45;9.63;;;0.40;99.90;;;;;;5095378;28;20105;-72
2022/12/10 11:58:53;;;;;;;18.23;9.02;;;0.40;99.90;;;;;;5089531;28;20306;-75
2022/12/10 12:01:42;;;;;;;18.83;7.97;;;0.40;99.90;;;;;;5078404;28;20028;-71
2022/12/10 12:04:44;;;;;;;23.05;7.80;;;0.40;99.90;;;;;;5078177;28;20024;-74
2022/12/10 12:07:33;;;;;;;15.07;7.25;;;0.40;99.90;;;;;;5040896;28;20065;-76
2022/12/10 12:10:25;;;;;;;12.75;6.25;;;0.40;99.90;;;;;;5078338;28;20039;-78
2022/12/10 12:13:04;;;;;;;15.20;6.20;;;0.40;99.90;;;;;;5078389;28;20050;-76
2022/12/10 12:15:51;;;;;;;17.67;6.43;;;0.30;99.90;;;;;;5096445;28;20020;-76
2022/12/10 12:18:48;;;;;;;9.40;5.15;;;0.30;99.90;;;;;;5088498;28;20016;-73
2022/12/10 12:21:16;;;;;;;16.55;6.00;;;0.30;99.90;;;;;;5096281;28;20063;-73
2022/12/10 12:23:58;;;;;;;14.60;7.32;;;0.30;99.90;;;;;;5078242;28;20035;-75
2022/12/10 12:26:31;;;;;;;16.08;7.95;;;0.30;99.90;;;;;;5097013;28;20319;-74
2022/12/10 12:29:28;;;;;;;13.93;7.57;;;0.20;99.90;;;;;;5082116;28;20297;-75
2022/12/10 12:32:18;;;;;;;13.75;5.85;;;0.30;99.90;;;;;;5080966;28;20031;-75
2022/12/10 12:35:04;;;;;;;25.20;11.20;;;0.30;99.90;;;;;;5099758;28;20016;-75
2022/12/10 12:37:49;;;;;;;18.95;9.48;;;0.30;99.90;;;;;;5099999;28;20031;-74
2022/12/10 12:40:27;;;;;;;14.27;6.57;;;0.30;99.90;;;;;;5081613;28;20304;-71
2022/12/10 12:43:02;;;;;;;15.15;7.40;;;0.30;99.90;;;;;;5099747;28;20094;-70
2022/12/10 12:45:41;;;;;;;20.55;7.43;;;0.30;99.90;;;;;;5081763;28;20020;-71
2022/12/10 12:48:35;;;;;;;12.13;5.10;;;0.20;99.90;;;;;;5099556;28;20023;-74
2022/12/10 12:51:25;;;;;;;13.30;5.75;;;0.20;99.90;;;;;;5081644;28;20054;-74
2022/12/10 12:53:53;;;;;;;13.15;6.30;;;0.20;99.90;;;;;;5081624;28;20052;-77
2022/12/10 12:56:30;;;;;;;12.30;4.47;;;0.20;99.90;;;;;;5099613;28;20024;-72
2022/12/10 12:59:25;;;;;;;13.32;6.20;;;0.20;99.90;;;;;;5081327;28;20053;-71
2022/12/10 13:02:21;;;;;;;13.35;5.95;;;0.20;99.90;;;;;;5076561;28;20039;-72
2022/12/10 13:04:50;;;;;;;12.33;5.50;;;0.20;99.90;;;;;;5099219;28;20097;-73
2022/12/10 13:07:20;;;;;;;14.48;5.47;;;0.20;99.90;;;;;;5099029;28;20024;-72
2022/12/10 13:10:14;;;;;;;14.55;6.05;;;0.20;99.90;;;;;;5099447;28;20031;-73
2022/12/10 13:13:00;;;;;;;16.42;7.32;;;0.20;99.90;;;;;;5095280;28;20032;-73
2022/12/10 13:15:39;;;;;;;13.68;6.43;;;0.20;99.90;;;;;;5099091;28;20016;-82